createdAt,value
2022-08-11T00:02:38.187Z,18.36
2022-08-11T00:05:13.107Z,18.36
2022-08-11T00:07:49.409Z,18.29
2022-08-11T00:10:23.024Z,18.28
2022-08-11T00:12:54.567Z,18.11
2022-08-11T00:15:30.626Z,18.01
2022-08-11T00:18:06.969Z,18.19
2022-08-11T00:20:36.921Z,18.19
2022-08-11T00:23:08.621Z,18.09
2022-08-11T00:25:39.955Z,18.04
2022-08-11T00:28:31.247Z,18.06
2022-08-11T00:31:04.239Z,18.04
2022-08-11T00:33:44.518Z,17.84
2022-08-11T00:36:15.733Z,17.74
2022-08-11T00:38:45.229Z,17.55
2022-08-11T00:41:36.651Z,17.54
2022-08-11T00:44:10.005Z,17.42
2022-08-11T00:46:57.213Z,17.38
2022-08-11T00:49:54.523Z,17.29
2022-08-11T00:52:47.677Z,17.21
2022-08-11T00:55:35.861Z,17.23
2022-08-11T00:58:40.239Z,17.14
2022-08-11T01:01:23.281Z,17.07
2022-08-11T01:04:08.635Z,17.07
2022-08-11T01:08:01.868Z,16.96
2022-08-11T01:11:00.785Z,16.90
2022-08-11T01:14:12.770Z,16.83
2022-08-11T01:16:52.045Z,16.86
2022-08-11T01:19:22.130Z,16.85
2022-08-11T01:22:07.536Z,16.78
2022-08-11T01:25:11.708Z,16.66
2022-08-11T01:28:15.100Z,16.69
2022-08-11T01:31:23.841Z,16.67
2022-08-11T01:34:27.609Z,16.66
2022-08-11T01:37:07.238Z,16.55
2022-08-11T01:40:24.476Z,16.54
2022-08-11T01:43:33.602Z,16.47
2022-08-11T01:46:23.133Z,16.44
2022-08-11T01:49:58.480Z,16.51
2022-08-11T01:52:42.166Z,16.51
2022-08-11T01:55:23.987Z,16.47
2022-08-11T01:58:09.808Z,16.47
2022-08-11T02:00:54.944Z,16.47
2022-08-11T02:03:38.584Z,16.44
2022-08-11T02:06:47.285Z,16.43
2022-08-11T02:09:29.167Z,16.42
2022-08-11T02:12:13.963Z,16.51
2022-08-11T02:15:05.729Z,16.44
2022-08-11T02:17:54.721Z,16.37
2022-08-11T02:20:47.456Z,16.29
2022-08-11T02:24:03.950Z,16.16
2022-08-11T02:26:41.165Z,16.17
2022-08-11T02:29:23.420Z,16.15
2022-08-11T02:32:44.499Z,16.11
2022-08-11T02:35:25.405Z,15.91
2022-08-11T02:38:27.892Z,15.90
2022-08-11T02:41:26.592Z,15.82
2022-08-11T02:44:09.806Z,15.82
2022-08-11T02:46:56.457Z,15.88
2022-08-11T02:50:06.459Z,15.80
2022-08-11T02:53:01.064Z,15.86
2022-08-11T02:55:56.425Z,15.78
2022-08-11T02:58:41.139Z,15.78
2022-08-11T03:01:38.054Z,15.83
2022-08-11T03:04:16.383Z,15.80
2022-08-11T03:07:05.836Z,15.74
2022-08-11T03:10:03.168Z,15.69
2022-08-11T03:13:30.799Z,15.62
2022-08-11T03:16:15.849Z,15.60
2022-08-11T03:19:14.648Z,15.58
2022-08-11T03:22:02.409Z,15.58
2022-08-11T03:24:56.070Z,15.53
2022-08-11T03:27:36.670Z,15.64
2022-08-11T03:30:10.439Z,15.55
2022-08-11T03:33:21.106Z,15.51
2022-08-11T03:36:05.765Z,15.37
2022-08-11T03:39:02.965Z,15.34
2022-08-11T03:42:10.108Z,15.25
2022-08-11T03:44:48.524Z,15.27
2022-08-11T03:47:41.693Z,15.27
2022-08-11T03:50:55.200Z,15.28
2022-08-11T03:53:53.304Z,15.21
2022-08-11T03:56:35.502Z,15.26
2022-08-11T03:59:04.780Z,15.22
2022-08-11T04:01:58.444Z,15.17
2022-08-11T04:04:35.560Z,15.11
2022-08-11T04:07:28.191Z,15.10
2022-08-11T04:10:28.495Z,15.00
2022-08-11T04:13:20.019Z,15.09
2022-08-11T04:16:12.238Z,15.09
2022-08-11T04:19:16.823Z,15.03
2022-08-11T04:21:56.464Z,15.16
2022-08-11T04:24:54.012Z,15.01
2022-08-11T04:27:38.975Z,14.96
2022-08-11T04:30:27.935Z,14.95
2022-08-11T04:33:28.081Z,14.95
2022-08-11T04:36:43.565Z,14.99
2022-08-11T04:39:25.079Z,15.02
2022-08-11T04:42:47.947Z,15.06
2022-08-11T04:45:54.132Z,15.01
2022-08-11T04:49:04.103Z,15.06
2022-08-11T04:52:21.259Z,15.11
2022-08-11T04:55:40.447Z,15.30
2022-08-11T04:58:52.277Z,15.28
2022-08-11T05:01:41.633Z,15.39
2022-08-11T05:04:31.887Z,15.44
2022-08-11T05:07:17.021Z,15.47
2022-08-11T05:09:46.433Z,15.58
2022-08-11T05:12:22.914Z,15.54
2022-08-11T05:15:43.006Z,15.59
2022-08-11T05:18:39.793Z,15.72
2022-08-11T05:21:30.563Z,15.75
2022-08-11T05:24:38.911Z,15.72
2022-08-11T05:27:28.228Z,15.77
2022-08-11T05:30:28.301Z,15.75
2022-08-11T05:33:27.820Z,15.69
2022-08-11T05:36:17.831Z,15.67
2022-08-11T05:39:13.318Z,15.73
2022-08-11T05:42:00.129Z,15.89
2022-08-11T05:44:47.345Z,16.01
2022-08-11T05:47:44.209Z,16.08
2022-08-11T05:50:33.135Z,16.23
2022-08-11T05:53:21.502Z,16.23
2022-08-11T05:56:09.977Z,16.33
2022-08-11T05:58:42.604Z,16.50
2022-08-11T06:01:21.727Z,16.52
2022-08-11T06:04:12.349Z,16.65
2022-08-11T06:06:47.120Z,16.74
2022-08-11T06:09:14.656Z,16.88
2022-08-11T06:11:44.939Z,17.04
2022-08-11T06:14:13.078Z,17.08
2022-08-11T06:16:41.876Z,17.22
2022-08-11T06:19:09.120Z,17.22
2022-08-11T06:21:36.579Z,17.31
2022-08-11T06:24:24.918Z,17.49
2022-08-11T06:29:54.751Z,17.70
2022-08-11T06:32:32.405Z,17.79
2022-08-11T06:35:13.132Z,17.91
2022-08-11T06:37:55.521Z,18.04
2022-08-11T06:40:30.001Z,18.12
2022-08-11T06:43:11.786Z,18.22
2022-08-11T06:46:03.130Z,18.45
2022-08-11T06:48:32.958Z,18.57
2022-08-11T06:51:13.696Z,18.59
2022-08-11T06:54:04.166Z,18.72
2022-08-11T07:00:13.030Z,18.90
2022-08-11T07:03:00.691Z,18.97
2022-08-11T07:05:48.731Z,19.15
2022-08-11T07:08:41.811Z,19.27
2022-08-11T07:11:48.991Z,19.30
2022-08-11T07:14:41.281Z,19.48
2022-08-11T07:17:14.546Z,19.59
2022-08-11T07:20:05.479Z,19.71
2022-08-11T07:22:52.616Z,19.82
2022-08-11T07:25:40.660Z,19.97
2022-08-11T07:28:31.052Z,20.10
2022-08-11T07:31:04.731Z,20.25
2022-08-11T07:34:07.041Z,20.43
2022-08-11T07:36:31.822Z,20.71
2022-08-11T07:38:59.458Z,20.87
2022-08-11T07:41:28.583Z,21.12
2022-08-11T07:44:09.105Z,21.42
2022-08-11T07:47:00.758Z,21.84
2022-08-11T07:49:49.324Z,22.12
2022-08-11T07:52:35.077Z,22.37
2022-08-11T07:55:08.457Z,22.53
2022-08-11T07:58:15.823Z,22.76
2022-08-11T08:01:10.224Z,22.84
2022-08-11T08:04:03.027Z,23.00
2022-08-11T08:06:51.236Z,23.13
2022-08-11T08:09:38.507Z,23.26
2022-08-11T08:12:26.239Z,23.26
2022-08-11T08:15:14.518Z,23.32
2022-08-11T08:18:20.602Z,23.43
2022-08-11T08:20:47.598Z,23.66
2022-08-11T08:23:14.853Z,23.62
2022-08-11T08:25:44.819Z,23.64
2022-08-11T08:28:15.512Z,23.70
2022-08-11T08:30:51.888Z,23.92
2022-08-11T08:33:23.622Z,24.05
2022-08-11T08:36:12.894Z,24.19
2022-08-11T08:38:47.817Z,24.44
2022-08-11T08:41:19.567Z,24.57
2022-08-11T08:43:51.824Z,24.66
2022-08-11T08:46:25.417Z,24.78
2022-08-11T08:48:53.854Z,24.98
2022-08-11T08:52:39.179Z,25.29
2022-08-11T08:54:25.634Z,25.54
2022-08-11T08:56:56.190Z,25.65
2022-08-11T08:59:27.143Z,25.67
2022-08-11T09:02:14.191Z,25.74
2022-08-11T09:04:44.929Z,25.98
2022-08-11T09:07:17.738Z,26.10
2022-08-11T09:09:50.142Z,26.29
2022-08-11T09:12:35.688Z,26.47
2022-08-11T09:15:10.189Z,26.84
2022-08-11T09:17:42.271Z,26.87
2022-08-11T09:20:13.139Z,26.92
2022-08-11T09:26:12.465Z,27.18
2022-08-11T09:28:41.519Z,27.37
2022-08-11T09:31:08.567Z,27.39
2022-08-11T09:33:36.391Z,27.36
2022-08-11T09:36:23.679Z,27.53
2022-08-11T09:39:15.278Z,27.69
2022-08-11T09:42:01.460Z,27.68
2022-08-11T09:44:51.877Z,27.84
2022-08-11T09:47:23.921Z,27.93
2022-08-11T09:49:54.373Z,27.93
2022-08-11T09:52:23.811Z,28.18
2022-08-11T09:54:53.695Z,28.23
2022-08-11T09:57:41.430Z,28.28
2022-08-11T10:00:14.386Z,28.54
2022-08-11T10:02:47.813Z,28.36
2022-08-11T10:05:38.061Z,28.66
2022-08-11T10:08:05.929Z,28.59
2022-08-11T10:10:39.050Z,28.67
2022-08-11T10:14:31.723Z,28.68
2022-08-11T10:16:15.803Z,28.92
2022-08-11T10:18:53.403Z,28.89
2022-08-11T10:21:34.494Z,29.11
2022-08-11T10:24:20.876Z,29.27
2022-08-11T10:26:53.804Z,29.44
2022-08-11T10:29:49.554Z,29.40
2022-08-11T10:32:52.778Z,29.56
2022-08-11T10:35:31.557Z,29.63
2022-08-11T10:38:07.916Z,29.69
2022-08-11T10:40:39.389Z,29.86
2022-08-11T10:43:10.445Z,29.80
2022-08-11T10:45:57.863Z,29.70
2022-08-11T10:48:30.474Z,29.62
2022-08-11T10:51:13.572Z,29.26
2022-08-11T10:54:12.812Z,29.47
2022-08-11T10:56:58.336Z,29.81
2022-08-11T10:59:28.035Z,30.04
2022-08-11T11:01:55.529Z,30.19
2022-08-11T11:04:39.700Z,30.24
2022-08-11T11:07:14.947Z,30.19
2022-08-11T11:09:48.463Z,29.97
2022-08-11T11:12:42.099Z,30.25
2022-08-11T11:15:28.892Z,30.12
2022-08-11T11:18:01.965Z,30.17
2022-08-11T11:20:53.805Z,30.47
2022-08-11T11:23:41.753Z,30.27
2022-08-11T11:26:27.305Z,30.25
2022-08-11T11:29:06.380Z,30.49
2022-08-11T11:32:16.851Z,30.11
2022-08-11T11:35:13.745Z,30.35
2022-08-11T11:37:56.159Z,30.47
2022-08-11T11:40:31.660Z,30.76
2022-08-11T11:42:59.943Z,31.02
2022-08-11T11:45:26.945Z,30.88
2022-08-11T11:47:55.476Z,31.02
2022-08-11T11:50:24.672Z,31.07
2022-08-11T11:52:55.383Z,31.12
2022-08-11T11:55:24.789Z,31.26
2022-08-11T11:58:18.838Z,31.27
2022-08-11T12:01:06.073Z,31.30
2022-08-11T12:03:35.614Z,30.99
2022-08-11T12:06:03.508Z,31.09
2022-08-11T12:08:31.196Z,30.73
2022-08-11T12:11:22.787Z,30.75
2022-08-11T12:13:53.112Z,30.96
2022-08-11T12:16:34.371Z,30.93
2022-08-11T12:19:06.016Z,31.12
2022-08-11T12:21:35.038Z,31.43
2022-08-11T12:24:21.846Z,31.64
2022-08-11T12:27:15.066Z,31.58
2022-08-11T12:29:45.913Z,31.44
2022-08-11T12:32:12.935Z,31.31
2022-08-11T12:34:39.502Z,31.34
2022-08-11T12:37:10.963Z,30.96
2022-08-11T12:40:16.752Z,31.26
2022-08-11T12:43:20.759Z,31.27
2022-08-11T12:45:58.268Z,30.96
2022-08-11T12:49:01.173Z,31.06
2022-08-11T12:52:12.417Z,31.39
2022-08-11T12:54:45.616Z,31.52
2022-08-11T12:57:45.607Z,31.28
2022-08-11T13:00:32.357Z,31.50
2022-08-11T13:03:18.033Z,31.56
2022-08-11T13:05:46.712Z,31.50
2022-08-11T13:08:17.279Z,31.44
2022-08-11T13:11:04.402Z,31.19
2022-08-11T13:13:54.454Z,31.35
2022-08-11T13:16:20.531Z,31.54
2022-08-11T13:18:47.678Z,31.46
2022-08-11T13:21:20.185Z,31.59
2022-08-11T13:24:00.814Z,31.56
2022-08-11T13:26:43.467Z,31.71
2022-08-11T13:29:26.333Z,31.63
2022-08-11T13:31:55.829Z,31.71
2022-08-11T13:34:24.693Z,31.50
2022-08-11T13:36:54.156Z,31.54
2022-08-11T13:39:24.416Z,31.62
2022-08-11T13:41:53.584Z,31.96
2022-08-11T13:44:25.511Z,32.04
2022-08-11T13:46:58.267Z,31.79
2022-08-11T13:49:26.546Z,31.70
2022-08-11T13:51:55.032Z,31.95
2022-08-11T13:54:25.935Z,32.08
2022-08-11T13:57:08.026Z,32.26
2022-08-11T13:59:51.839Z,32.12
2022-08-11T14:02:29.259Z,31.82
2022-08-11T14:05:02.629Z,31.58
2022-08-11T14:07:37.355Z,31.72
2022-08-11T14:10:07.151Z,31.75
2022-08-11T14:12:54.024Z,31.58
2022-08-11T14:15:26.745Z,31.61
2022-08-11T14:18:01.950Z,31.67
2022-08-11T14:20:51.130Z,31.87
2022-08-11T14:23:19.173Z,31.74
2022-08-11T14:26:05.968Z,31.74
2022-08-11T14:28:39.896Z,31.67
2022-08-11T14:31:11.777Z,31.60
2022-08-11T14:33:59.282Z,31.63
2022-08-11T14:36:28.526Z,31.67
2022-08-11T14:38:55.917Z,31.73
2022-08-11T14:42:09.916Z,32.11
2022-08-11T14:44:51.776Z,32.15
2022-08-11T14:47:24.627Z,31.57
2022-08-11T14:50:09.719Z,31.63
2022-08-11T14:52:39.732Z,31.75
2022-08-11T14:55:27.100Z,31.76
2022-08-11T14:57:57.110Z,31.73
2022-08-11T15:00:24.930Z,31.52
2022-08-11T15:03:10.369Z,31.44
2022-08-11T15:05:55.747Z,31.50
2022-08-11T15:08:46.366Z,31.25
2022-08-11T15:11:33.352Z,31.34
2022-08-11T15:14:02.583Z,31.60
2022-08-11T15:16:48.209Z,31.49
2022-08-11T15:19:16.727Z,31.59
2022-08-11T15:22:01.989Z,31.58
2022-08-11T15:24:30.674Z,31.72
2022-08-11T15:27:19.433Z,31.82
2022-08-11T15:30:06.430Z,31.60
2022-08-11T15:32:53.940Z,31.64
2022-08-11T15:35:39.858Z,31.57
2022-08-11T15:38:11.554Z,31.73
2022-08-11T15:40:59.092Z,31.86
2022-08-11T15:43:49.903Z,31.76
2022-08-11T15:46:20.779Z,31.74
2022-08-11T15:48:56.091Z,31.70
2022-08-11T15:51:36.175Z,31.36
2022-08-11T15:54:11.119Z,31.56
2022-08-11T15:56:42.584Z,31.44
2022-08-11T15:59:41.931Z,31.66
2022-08-11T16:02:25.336Z,31.86
2022-08-11T16:04:54.196Z,31.88
2022-08-11T16:07:27.278Z,31.75
2022-08-11T16:10:07.639Z,31.51
2022-08-11T16:12:39.563Z,31.51
2022-08-11T16:15:28.167Z,31.38
2022-08-11T16:18:01.960Z,31.12
2022-08-11T16:20:30.678Z,31.34
2022-08-11T16:23:02.944Z,31.40
2022-08-11T16:27:02.994Z,31.22
2022-08-11T16:28:22.198Z,31.26
2022-08-11T16:30:49.732Z,31.20
2022-08-11T16:33:48.237Z,30.97
2022-08-11T16:36:24.679Z,30.88
2022-08-11T16:38:53.248Z,30.81
2022-08-11T16:41:41.154Z,30.67
2022-08-11T16:44:36.850Z,30.67
2022-08-11T16:47:06.950Z,30.73
2022-08-11T16:49:36.651Z,30.78
2022-08-11T16:52:05.882Z,30.78
2022-08-11T16:54:34.154Z,30.74
2022-08-11T16:57:26.529Z,30.69
2022-08-11T16:59:58.059Z,30.62
2022-08-11T17:02:48.949Z,30.66
2022-08-11T17:06:00.562Z,30.54
2022-08-11T17:08:57.534Z,30.40
2022-08-11T17:11:49.548Z,30.40
2022-08-11T17:14:35.465Z,30.30
2022-08-11T17:17:05.915Z,30.26
2022-08-11T17:20:38.545Z,30.23
2022-08-11T17:22:41.643Z,30.09
2022-08-11T17:25:09.629Z,29.99
2022-08-11T17:27:38.949Z,29.96
2022-08-11T17:30:07.623Z,30.08
2022-08-11T17:33:00.614Z,29.98
2022-08-11T17:35:38.459Z,29.89
2022-08-11T17:38:10.083Z,29.78
2022-08-11T17:41:00.368Z,29.75
2022-08-11T17:43:46.950Z,29.54
2022-08-11T17:46:34.035Z,29.33
2022-08-11T17:49:01.669Z,29.38
2022-08-11T17:51:48.988Z,29.21
2022-08-11T17:54:34.716Z,29.18
2022-08-11T17:57:22.073Z,29.07
2022-08-11T17:59:56.238Z,28.92
2022-08-11T18:02:52.271Z,28.78
2022-08-11T18:05:22.250Z,28.66
2022-08-11T18:08:11.475Z,28.66
2022-08-11T18:10:58.430Z,28.64
2022-08-11T18:13:47.741Z,28.45
2022-08-11T18:16:33.380Z,28.36
2022-08-11T18:19:19.076Z,28.24
2022-08-11T18:22:14.877Z,28.15
2022-08-11T18:25:08.989Z,27.99
2022-08-11T18:27:56.755Z,27.91
2022-08-11T18:30:43.633Z,27.91
2022-08-11T18:36:45.996Z,27.68
2022-08-11T18:39:33.317Z,27.52
2022-08-11T18:42:28.844Z,27.39
2022-08-11T18:45:45.164Z,27.31
2022-08-11T18:48:35.931Z,27.18
2022-08-11T18:51:30.377Z,27.05
2022-08-11T18:54:25.973Z,26.95
2022-08-11T18:57:13.210Z,26.82
2022-08-11T19:00:02.660Z,26.77
2022-08-11T19:02:51.252Z,26.68
2022-08-11T19:06:31.723Z,26.59
2022-08-11T19:08:49.156Z,26.47
2022-08-11T19:11:34.853Z,26.41
2022-08-11T19:14:28.902Z,26.30
2022-08-11T19:17:15.265Z,26.20
2022-08-11T19:20:26.563Z,26.18
2022-08-11T19:23:14.792Z,26.03
2022-08-11T19:26:02.620Z,25.95
2022-08-11T19:28:49.363Z,25.84
2022-08-11T19:31:34.958Z,25.73
2022-08-11T19:34:21.220Z,25.59
2022-08-11T19:37:07.923Z,25.48
2022-08-11T19:39:54.319Z,25.38
2022-08-11T19:42:40.944Z,25.29
2022-08-11T19:45:29.589Z,25.20
2022-08-11T19:48:31.353Z,25.13
2022-08-11T19:51:18.146Z,25.00
2022-08-11T19:54:06.527Z,24.94
2022-08-11T19:56:52.671Z,24.87
2022-08-11T19:59:39.649Z,24.72
2022-08-11T20:02:25.213Z,24.67
2022-08-11T20:05:11.212Z,24.57
2022-08-11T20:07:57.017Z,24.50
2022-08-11T20:10:46.805Z,24.39
2022-08-11T20:13:32.380Z,24.30
2022-08-11T20:16:18.736Z,24.24
2022-08-11T20:19:05.533Z,24.15
2022-08-11T20:21:51.831Z,24.09
2022-08-11T20:24:38.662Z,24.03
2022-08-11T20:27:25.639Z,24.00
2022-08-11T20:30:12.704Z,23.96
2022-08-11T20:32:59.418Z,23.90
2022-08-11T20:35:45.273Z,23.82
2022-08-11T20:38:33.750Z,23.77
2022-08-11T20:41:21.520Z,23.68
2022-08-11T20:44:09.602Z,23.55
2022-08-11T20:46:57.813Z,23.56
2022-08-11T20:49:52.598Z,23.41
2022-08-11T20:52:48.051Z,23.40
2022-08-11T20:55:51.838Z,23.36
2022-08-11T21:01:46.339Z,23.25
2022-08-11T21:04:32.801Z,23.18
2022-08-11T21:07:28.347Z,23.15
2022-08-11T21:10:23.424Z,23.13
2022-08-11T21:13:24.998Z,22.97
2022-08-11T21:16:25.791Z,22.79
2022-08-11T21:19:55.177Z,22.70
2022-08-11T21:22:59.090Z,22.73
2022-08-11T21:25:59.271Z,22.78
2022-08-11T21:28:46.439Z,22.68
2022-08-11T21:31:33.606Z,22.63
2022-08-11T21:34:20.968Z,22.63
2022-08-11T21:37:08.782Z,22.51
2022-08-11T21:39:55.316Z,22.41
2022-08-11T21:42:41.468Z,22.35
2022-08-11T21:45:28.690Z,22.31
2022-08-11T21:48:15.515Z,22.31
2022-08-11T21:51:00.882Z,22.24
2022-08-11T21:53:48.252Z,22.16
2022-08-11T21:56:34.493Z,22.09
2022-08-11T21:59:20.927Z,21.99
2022-08-11T22:02:12.417Z,21.96
2022-08-11T22:04:58.596Z,21.81
2022-08-11T22:07:44.168Z,21.84
2022-08-11T22:10:42.042Z,21.87
2022-08-11T22:13:30.674Z,21.89
2022-08-11T22:16:17.660Z,21.87
2022-08-11T22:19:05.854Z,21.90
2022-08-11T22:22:02.978Z,21.86
2022-08-11T22:24:51.733Z,21.75
2022-08-11T22:27:37.453Z,21.70
2022-08-11T22:30:25.528Z,21.62
2022-08-11T22:33:11.521Z,21.49
2022-08-11T22:35:58.294Z,21.41
2022-08-11T22:38:44.800Z,21.29
2022-08-11T22:41:30.602Z,21.21
2022-08-11T22:44:15.830Z,21.20
2022-08-11T22:47:01.961Z,21.13
2022-08-11T22:49:58.241Z,21.09
2022-08-11T22:52:49.383Z,21.13
2022-08-11T22:55:35.427Z,21.19
2022-08-11T22:58:22.501Z,21.18
2022-08-11T23:01:09.081Z,21.16
2022-08-11T23:03:55.584Z,21.07
2022-08-11T23:06:41.577Z,21.02
2022-08-11T23:09:27.812Z,20.86
2022-08-11T23:12:13.346Z,20.83
2022-08-11T23:15:00.082Z,20.73
2022-08-11T23:17:49.175Z,20.60
2022-08-11T23:20:43.183Z,20.53
2022-08-11T23:23:33.658Z,20.52
2022-08-11T23:26:20.401Z,20.47
2022-08-11T23:29:06.319Z,20.41
2022-08-11T23:31:53.916Z,20.35
2022-08-11T23:35:36.985Z,20.25
2022-08-11T23:37:48.434Z,20.20
2022-08-11T23:40:33.686Z,20.15
2022-08-11T23:43:19.589Z,20.26
2022-08-11T23:46:05.196Z,20.22
2022-08-11T23:48:51.447Z,20.16
2022-08-11T23:51:40.614Z,20.17
2022-08-11T23:54:27.786Z,20.15
2022-08-11T23:57:14.016Z,19.97
2022-08-11T23:59:59.172Z,19.87
